sensor_id;sensor_type;location;lat;lon;timestamp;P1;P2;P0
73414;PMS5003;61633;53.742;-2.990;2022-09-09T00:00:31;25;22;
73414;PMS5003;61633;53.742;-2.990;2022-09-09T00:02:58;28;27;
73414;PMS5003;61633;53.742;-2.990;2022-09-09T00:05:22;21;21;
73414;PMS5003;61633;53.742;-2.990;2022-09-09T00:07:47;22;21;
73414;PMS5003;61633;53.742;-2.990;2022-09-09T00:10:15;24;24;
73414;PMS5003;61633;53.742;-2.990;2022-09-09T00:12:39;26;23;
73414;PMS5003;61633;53.742;-2.990;2022-09-09T00:15:05;26;24;
73414;PMS5003;61633;53.742;-2.990;2022-09-09T00:17:31;22;22;
73414;PMS5003;61633;53.742;-2.990;2022-09-09T00:19:55;27;26;
73414;PMS5003;61633;53.742;-2.990;2022-09-09T00:22:20;29;26;
73414;PMS5003;61633;53.742;-2.990;2022-09-09T00:24:46;27;27;
73414;PMS5003;61633;53.742;-2.990;2022-09-09T00:27:13;24;24;
73414;PMS5003;61633;53.742;-2.990;2022-09-09T00:29:37;28;27;
73414;PMS5003;61633;53.742;-2.990;2022-09-09T00:32:05;30;26;
73414;PMS5003;61633;53.742;-2.990;2022-09-09T00:34:26;23;22;
73414;PMS5003;61633;53.742;-2.990;2022-09-09T00:36:52;26;26;
73414;PMS5003;61633;53.742;-2.990;2022-09-09T00:39:20;35;31;
73414;PMS5003;61633;53.742;-2.990;2022-09-09T00:41:47;26;25;
73414;PMS5003;61633;53.742;-2.990;2022-09-09T00:44:13;25;23;
73414;PMS5003;61633;53.742;-2.990;2022-09-09T00:49:03;30;29;
73414;PMS5003;61633;53.742;-2.990;2022-09-09T00:51:29;29;27;
73414;PMS5003;61633;53.742;-2.990;2022-09-09T00:53:58;31;29;
73414;PMS5003;61633;53.742;-2.990;2022-09-09T00:56:18;30;29;
73414;PMS5003;61633;53.742;-2.990;2022-09-09T00:58:43;27;26;
73414;PMS5003;61633;53.742;-2.990;2022-09-09T01:01:13;25;24;
73414;PMS5003;61633;53.742;-2.990;2022-09-09T01:03:34;29;27;
73414;PMS5003;61633;53.742;-2.990;2022-09-09T01:06:01;30;29;
73414;PMS5003;61633;53.742;-2.990;2022-09-09T01:08:31;25;23;
73414;PMS5003;61633;53.742;-2.990;2022-09-09T01:10:49;28;26;
73414;PMS5003;61633;53.742;-2.990;2022-09-09T01:13:17;24;24;
73414;PMS5003;61633;53.742;-2.990;2022-09-09T01:15:40;27;24;
73414;PMS5003;61633;53.742;-2.990;2022-09-09T01:18:06;30;26;
73414;PMS5003;61633;53.742;-2.990;2022-09-09T01:20:31;23;21;
73414;PMS5003;61633;53.742;-2.990;2022-09-09T01:23:07;26;22;
73414;PMS5003;61633;53.742;-2.990;2022-09-09T01:25:24;26;26;
73414;PMS5003;61633;53.742;-2.990;2022-09-09T01:27:47;29;27;
73414;PMS5003;61633;53.742;-2.990;2022-09-09T01:30:14;28;25;
73414;PMS5003;61633;53.742;-2.990;2022-09-09T01:32:40;26;23;
73414;PMS5003;61633;53.742;-2.990;2022-09-09T01:35:05;27;26;
73414;PMS5003;61633;53.742;-2.990;2022-09-09T01:37:29;29;27;
73414;PMS5003;61633;53.742;-2.990;2022-09-09T01:39:55;27;25;
73414;PMS5003;61633;53.742;-2.990;2022-09-09T01:42:21;29;27;
73414;PMS5003;61633;53.742;-2.990;2022-09-09T01:44:47;26;25;
73414;PMS5003;61633;53.742;-2.990;2022-09-09T01:47:12;32;32;
73414;PMS5003;61633;53.742;-2.990;2022-09-09T01:49:38;28;24;
73414;PMS5003;61633;53.742;-2.990;2022-09-09T01:52:03;21;19;
73414;PMS5003;61633;53.742;-2.990;2022-09-09T01:54:29;27;26;
73414;PMS5003;61633;53.742;-2.990;2022-09-09T01:56:56;21;19;
73414;PMS5003;61633;53.742;-2.990;2022-09-09T01:59:24;22;21;
73414;PMS5003;61633;53.742;-2.990;2022-09-09T02:01:48;26;23;
73414;PMS5003;61633;53.742;-2.990;2022-09-09T02:04:14;30;26;
73414;PMS5003;61633;53.742;-2.990;2022-09-09T02:06:38;27;25;
73414;PMS5003;61633;53.742;-2.990;2022-09-09T02:09:09;28;26;
73414;PMS5003;61633;53.742;-2.990;2022-09-09T02:11:29;26;25;
73414;PMS5003;61633;53.742;-2.990;2022-09-09T02:13:56;26;25;
73414;PMS5003;61633;53.742;-2.990;2022-09-09T02:16:21;28;28;
73414;PMS5003;61633;53.742;-2.990;2022-09-09T02:18:47;30;27;
73414;PMS5003;61633;53.742;-2.990;2022-09-09T02:21:11;30;30;
73414;PMS5003;61633;53.742;-2.990;2022-09-09T02:23:36;31;28;
73414;PMS5003;61633;53.742;-2.990;2022-09-09T02:26:02;27;25;
73414;PMS5003;61633;53.742;-2.990;2022-09-09T02:28:28;30;27;
73414;PMS5003;61633;53.742;-2.990;2022-09-09T02:30:53;34;32;
73414;PMS5003;61633;53.742;-2.990;2022-09-09T02:33:19;28;25;
73414;PMS5003;61633;53.742;-2.990;2022-09-09T02:35:45;28;27;
73414;PMS5003;61633;53.742;-2.990;2022-09-09T02:38:10;28;23;
73414;PMS5003;61633;53.742;-2.990;2022-09-09T02:40:35;29;27;
73414;PMS5003;61633;53.742;-2.990;2022-09-09T02:43:00;26;25;
73414;PMS5003;61633;53.742;-2.990;2022-09-09T02:45:27;28;26;
73414;PMS5003;61633;53.742;-2.990;2022-09-09T02:47:53;25;24;
73414;PMS5003;61633;53.742;-2.990;2022-09-09T02:50:17;33;32;
73414;PMS5003;61633;53.742;-2.990;2022-09-09T02:52:46;27;26;
73414;PMS5003;61633;53.742;-2.990;2022-09-09T02:55:10;29;27;
73414;PMS5003;61633;53.742;-2.990;2022-09-09T02:57:34;23;21;
73414;PMS5003;61633;53.742;-2.990;2022-09-09T03:00:00;24;24;
73414;PMS5003;61633;53.742;-2.990;2022-09-09T03:02:25;26;23;
73414;PMS5003;61633;53.742;-2.990;2022-09-09T03:04:51;29;28;
73414;PMS5003;61633;53.742;-2.990;2022-09-09T03:07:17;31;30;
73414;PMS5003;61633;53.742;-2.990;2022-09-09T03:09:43;28;27;
73414;PMS5003;61633;53.742;-2.990;2022-09-09T03:12:08;32;27;
73414;PMS5003;61633;53.742;-2.990;2022-09-09T03:14:33;25;24;
73414;PMS5003;61633;53.742;-2.990;2022-09-09T03:16:59;28;26;
73414;PMS5003;61633;53.742;-2.990;2022-09-09T03:19:24;27;25;
73414;PMS5003;61633;53.742;-2.990;2022-09-09T03:21:50;29;27;
73414;PMS5003;61633;53.742;-2.990;2022-09-09T03:24:15;29;28;
73414;PMS5003;61633;53.742;-2.990;2022-09-09T03:26:41;27;27;
73414;PMS5003;61633;53.742;-2.990;2022-09-09T03:29:07;28;27;
73414;PMS5003;61633;53.742;-2.990;2022-09-09T03:31:32;25;24;
73414;PMS5003;61633;53.742;-2.990;2022-09-09T03:33:58;24;24;
73414;PMS5003;61633;53.742;-2.990;2022-09-09T03:36:23;27;27;
73414;PMS5003;61633;53.742;-2.990;2022-09-09T03:38:49;29;28;
73414;PMS5003;61633;53.742;-2.990;2022-09-09T03:41:14;24;23;
73414;PMS5003;61633;53.742;-2.990;2022-09-09T03:43:40;32;26;
73414;PMS5003;61633;53.742;-2.990;2022-09-09T03:46:05;25;25;
73414;PMS5003;61633;53.742;-2.990;2022-09-09T03:48:30;27;26;
73414;PMS5003;61633;53.742;-2.990;2022-09-09T03:50:56;26;26;
73414;PMS5003;61633;53.742;-2.990;2022-09-09T03:53:22;27;24;
73414;PMS5003;61633;53.742;-2.990;2022-09-09T03:55:48;31;30;
73414;PMS5003;61633;53.742;-2.990;2022-09-09T03:58:13;27;27;
73414;PMS5003;61633;53.742;-2.990;2022-09-09T04:00:38;27;26;
73414;PMS5003;61633;53.742;-2.990;2022-09-09T04:03:03;33;31;
73414;PMS5003;61633;53.742;-2.990;2022-09-09T04:05:29;33;31;
73414;PMS5003;61633;53.742;-2.990;2022-09-09T04:07:54;28;27;
73414;PMS5003;61633;53.742;-2.990;2022-09-09T04:10:20;26;25;
73414;PMS5003;61633;53.742;-2.990;2022-09-09T04:12:45;32;28;
73414;PMS5003;61633;53.742;-2.990;2022-09-09T04:15:11;25;25;
73414;PMS5003;61633;53.742;-2.990;2022-09-09T04:17:36;29;28;
73414;PMS5003;61633;53.742;-2.990;2022-09-09T04:20:02;31;28;
73414;PMS5003;61633;53.742;-2.990;2022-09-09T04:22:27;27;26;
73414;PMS5003;61633;53.742;-2.990;2022-09-09T04:24:53;24;24;
73414;PMS5003;61633;53.742;-2.990;2022-09-09T04:27:18;26;24;
73414;PMS5003;61633;53.742;-2.990;2022-09-09T04:29:44;23;22;
73414;PMS5003;61633;53.742;-2.990;2022-09-09T04:32:09;24;24;
73414;PMS5003;61633;53.742;-2.990;2022-09-09T04:34:35;29;28;
73414;PMS5003;61633;53.742;-2.990;2022-09-09T04:37:00;26;26;
73414;PMS5003;61633;53.742;-2.990;2022-09-09T04:39:26;28;27;
73414;PMS5003;61633;53.742;-2.990;2022-09-09T04:41:51;26;24;
73414;PMS5003;61633;53.742;-2.990;2022-09-09T04:44:17;29;27;
73414;PMS5003;61633;53.742;-2.990;2022-09-09T04:46:43;24;23;
73414;PMS5003;61633;53.742;-2.990;2022-09-09T04:49:08;28;27;
73414;PMS5003;61633;53.742;-2.990;2022-09-09T04:51:34;25;24;
73414;PMS5003;61633;53.742;-2.990;2022-09-09T04:53:59;26;24;
73414;PMS5003;61633;53.742;-2.990;2022-09-09T04:56:25;25;25;
73414;PMS5003;61633;53.742;-2.990;2022-09-09T04:58:51;27;25;
73414;PMS5003;61633;53.742;-2.990;2022-09-09T05:01:18;28;25;
73414;PMS5003;61633;53.742;-2.990;2022-09-09T05:03:43;31;30;
73414;PMS5003;61633;53.742;-2.990;2022-09-09T05:06:09;27;26;
73414;PMS5003;61633;53.742;-2.990;2022-09-09T05:08:34;33;29;
73414;PMS5003;61633;53.742;-2.990;2022-09-09T05:10:59;30;26;
73414;PMS5003;61633;53.742;-2.990;2022-09-09T05:13:25;26;25;
73414;PMS5003;61633;53.742;-2.990;2022-09-09T05:15:51;31;27;
73414;PMS5003;61633;53.742;-2.990;2022-09-09T05:18:15;26;24;
73414;PMS5003;61633;53.742;-2.990;2022-09-09T05:20:40;28;26;
73414;PMS5003;61633;53.742;-2.990;2022-09-09T05:23:07;28;27;
73414;PMS5003;61633;53.742;-2.990;2022-09-09T05:25:32;24;23;
73414;PMS5003;61633;53.742;-2.990;2022-09-09T05:27:58;28;25;
73414;PMS5003;61633;53.742;-2.990;2022-09-09T05:30:23;28;25;
73414;PMS5003;61633;53.742;-2.990;2022-09-09T05:32:48;27;26;
73414;PMS5003;61633;53.742;-2.990;2022-09-09T05:35:14;24;24;
73414;PMS5003;61633;53.742;-2.990;2022-09-09T05:37:40;24;23;
73414;PMS5003;61633;53.742;-2.990;2022-09-09T05:40:06;26;26;
73414;PMS5003;61633;53.742;-2.990;2022-09-09T05:42:31;30;26;
73414;PMS5003;61633;53.742;-2.990;2022-09-09T05:44:57;30;28;
73414;PMS5003;61633;53.742;-2.990;2022-09-09T05:47:22;25;23;
73414;PMS5003;61633;53.742;-2.990;2022-09-09T05:49:53;24;23;
73414;PMS5003;61633;53.742;-2.990;2022-09-09T05:54:42;26;26;
73414;PMS5003;61633;53.742;-2.990;2022-09-09T05:59:41;26;20;
73414;PMS5003;61633;53.742;-2.990;2022-09-09T06:02:02;28;24;
73414;PMS5003;61633;53.742;-2.990;2022-09-09T06:04:27;23;23;
73414;PMS5003;61633;53.742;-2.990;2022-09-09T06:06:53;20;20;
73414;PMS5003;61633;53.742;-2.990;2022-09-09T06:09:23;26;25;
73414;PMS5003;61633;53.742;-2.990;2022-09-09T06:11:39;25;24;
73414;PMS5003;61633;53.742;-2.990;2022-09-09T06:14:05;23;18;
73414;PMS5003;61633;53.742;-2.990;2022-09-09T06:16:32;25;25;
73414;PMS5003;61633;53.742;-2.990;2022-09-09T06:18:56;26;25;
73414;PMS5003;61633;53.742;-2.990;2022-09-09T06:21:23;24;20;
73414;PMS5003;61633;53.742;-2.990;2022-09-09T06:23:48;25;23;
73414;PMS5003;61633;53.742;-2.990;2022-09-09T06:26:23;31;27;
73414;PMS5003;61633;53.742;-2.990;2022-09-09T06:28:38;23;21;
73414;PMS5003;61633;53.742;-2.990;2022-09-09T06:31:04;23;22;
73414;PMS5003;61633;53.742;-2.990;2022-09-09T06:33:34;20;20;
73414;PMS5003;61633;53.742;-2.990;2022-09-09T06:35:54;25;25;
73414;PMS5003;61633;53.742;-2.990;2022-09-09T06:38:20;22;21;
73414;PMS5003;61633;53.742;-2.990;2022-09-09T06:40:50;22;22;
73414;PMS5003;61633;53.742;-2.990;2022-09-09T06:43:14;26;23;
73414;PMS5003;61633;53.742;-2.990;2022-09-09T06:48:04;24;22;
73414;PMS5003;61633;53.742;-2.990;2022-09-09T06:50:29;21;21;
73414;PMS5003;61633;53.742;-2.990;2022-09-09T06:52:58;25;25;
73414;PMS5003;61633;53.742;-2.990;2022-09-09T06:55:19;26;25;
73414;PMS5003;61633;53.742;-2.990;2022-09-09T06:57:45;26;21;
73414;PMS5003;61633;53.742;-2.990;2022-09-09T07:00:12;23;22;
73414;PMS5003;61633;53.742;-2.990;2022-09-09T07:02:45;26;25;
73414;PMS5003;61633;53.742;-2.990;2022-09-09T07:05:03;19;19;
73414;PMS5003;61633;53.742;-2.990;2022-09-09T07:07:27;26;23;
73414;PMS5003;61633;53.742;-2.990;2022-09-09T07:09:54;22;21;
73414;PMS5003;61633;53.742;-2.990;2022-09-09T07:12:23;21;21;
73414;PMS5003;61633;53.742;-2.990;2022-09-09T07:14:45;26;24;
73414;PMS5003;61633;53.742;-2.990;2022-09-09T07:17:09;25;23;
73414;PMS5003;61633;53.742;-2.990;2022-09-09T07:19:35;25;25;
73414;PMS5003;61633;53.742;-2.990;2022-09-09T07:22:00;22;20;
73414;PMS5003;61633;53.742;-2.990;2022-09-09T07:24:26;17;17;
73414;PMS5003;61633;53.742;-2.990;2022-09-09T07:26:51;20;18;
73414;PMS5003;61633;53.742;-2.990;2022-09-09T07:29:17;26;22;
73414;PMS5003;61633;53.742;-2.990;2022-09-09T07:31:42;22;22;
73414;PMS5003;61633;53.742;-2.990;2022-09-09T07:34:08;26;25;
73414;PMS5003;61633;53.742;-2.990;2022-09-09T07:36:33;23;22;
73414;PMS5003;61633;53.742;-2.990;2022-09-09T07:38:59;21;19;
73414;PMS5003;61633;53.742;-2.990;2022-09-09T07:41:24;23;22;
73414;PMS5003;61633;53.742;-2.990;2022-09-09T07:43:49;25;24;
73414;PMS5003;61633;53.742;-2.990;2022-09-09T07:46:16;30;29;
73414;PMS5003;61633;53.742;-2.990;2022-09-09T07:48:43;20;20;
73414;PMS5003;61633;53.742;-2.990;2022-09-09T07:51:06;22;21;
73414;PMS5003;61633;53.742;-2.990;2022-09-09T07:53:31;26;24;
73414;PMS5003;61633;53.742;-2.990;2022-09-09T07:56:02;24;24;
73414;PMS5003;61633;53.742;-2.990;2022-09-09T07:58:24;20;17;
73414;PMS5003;61633;53.742;-2.990;2022-09-09T08:00:48;20;18;
73414;PMS5003;61633;53.742;-2.990;2022-09-09T08:03:13;17;17;
73414;PMS5003;61633;53.742;-2.990;2022-09-09T08:05:39;20;19;
73414;PMS5003;61633;53.742;-2.990;2022-09-09T08:08:04;19;19;
73414;PMS5003;61633;53.742;-2.990;2022-09-09T08:10:29;19;18;
73414;PMS5003;61633;53.742;-2.990;2022-09-09T08:12:55;17;17;
73414;PMS5003;61633;53.742;-2.990;2022-09-09T08:15:20;19;19;
73414;PMS5003;61633;53.742;-2.990;2022-09-09T08:17:47;22;19;
73414;PMS5003;61633;53.742;-2.990;2022-09-09T08:20:12;17;16;
73414;PMS5003;61633;53.742;-2.990;2022-09-09T08:22:38;17;16;
73414;PMS5003;61633;53.742;-2.990;2022-09-09T08:25:04;15;15;
73414;PMS5003;61633;53.742;-2.990;2022-09-09T08:27:28;17;15;
73414;PMS5003;61633;53.742;-2.990;2022-09-09T08:29:54;12;12;
73414;PMS5003;61633;53.742;-2.990;2022-09-09T08:32:19;15;13;
73414;PMS5003;61633;53.742;-2.990;2022-09-09T08:34:49;11;11;
73414;PMS5003;61633;53.742;-2.990;2022-09-09T08:37:11;13;11;
73414;PMS5003;61633;53.742;-2.990;2022-09-09T08:39:36;11;11;
73414;PMS5003;61633;53.742;-2.990;2022-09-09T08:42:08;12;11;
73414;PMS5003;61633;53.742;-2.990;2022-09-09T08:44:31;12;11;
73414;PMS5003;61633;53.742;-2.990;2022-09-09T08:46:54;11;9;
73414;PMS5003;61633;53.742;-2.990;2022-09-09T08:49:22;9;9;
73414;PMS5003;61633;53.742;-2.990;2022-09-09T08:51:44;10;10;
73414;PMS5003;61633;53.742;-2.990;2022-09-09T08:54:09;14;12;
73414;PMS5003;61633;53.742;-2.990;2022-09-09T08:56:36;10;10;
73414;PMS5003;61633;53.742;-2.990;2022-09-09T08:59:01;12;10;
73414;PMS5003;61633;53.742;-2.990;2022-09-09T09:01:29;11;10;
73414;PMS5003;61633;53.742;-2.990;2022-09-09T09:03:52;8;8;
73414;PMS5003;61633;53.742;-2.990;2022-09-09T09:06:20;8;7;
73414;PMS5003;61633;53.742;-2.990;2022-09-09T09:08:43;5;5;
73414;PMS5003;61633;53.742;-2.990;2022-09-09T09:11:08;5;5;
73414;PMS5003;61633;53.742;-2.990;2022-09-09T09:13:34;7;6;
73414;PMS5003;61633;53.742;-2.990;2022-09-09T09:16:00;6;6;
73414;PMS5003;61633;53.742;-2.990;2022-09-09T09:18:23;4;4;
73414;PMS5003;61633;53.742;-2.990;2022-09-09T09:20:50;7;6;
73414;PMS5003;61633;53.742;-2.990;2022-09-09T09:23:16;4;4;
73414;PMS5003;61633;53.742;-2.990;2022-09-09T09:25:40;7;5;
73414;PMS5003;61633;53.742;-2.990;2022-09-09T09:28:10;6;6;
73414;PMS5003;61633;53.742;-2.990;2022-09-09T09:30:31;6;5;
73414;PMS5003;61633;53.742;-2.990;2022-09-09T09:32:58;7;7;
73414;PMS5003;61633;53.742;-2.990;2022-09-09T09:35:21;9;7;
73414;PMS5003;61633;53.742;-2.990;2022-09-09T09:37:47;5;5;
73414;PMS5003;61633;53.742;-2.990;2022-09-09T09:40:13;7;7;
73414;PMS5003;61633;53.742;-2.990;2022-09-09T09:42:46;6;6;
73414;PMS5003;61633;53.742;-2.990;2022-09-09T09:45:13;6;6;
73414;PMS5003;61633;53.742;-2.990;2022-09-09T09:47:29;7;7;
73414;PMS5003;61633;53.742;-2.990;2022-09-09T09:49:55;7;7;
73414;PMS5003;61633;53.742;-2.990;2022-09-09T09:52:20;8;7;
73414;PMS5003;61633;53.742;-2.990;2022-09-09T09:54:46;9;8;
73414;PMS5003;61633;53.742;-2.990;2022-09-09T09:57:11;5;5;
73414;PMS5003;61633;53.742;-2.990;2022-09-09T09:59:36;6;6;
73414;PMS5003;61633;53.742;-2.990;2022-09-09T10:02:10;6;5;
73414;PMS5003;61633;53.742;-2.990;2022-09-09T10:04:27;5;5;
73414;PMS5003;61633;53.742;-2.990;2022-09-09T10:06:52;6;6;
73414;PMS5003;61633;53.742;-2.990;2022-09-09T10:09:23;5;5;
73414;PMS5003;61633;53.742;-2.990;2022-09-09T10:11:45;4;4;
73414;PMS5003;61633;53.742;-2.990;2022-09-09T10:14:11;4;4;
73414;PMS5003;61633;53.742;-2.990;2022-09-09T10:16:38;4;4;
73414;PMS5003;61633;53.742;-2.990;2022-09-09T10:19:00;3;2;
73414;PMS5003;61633;53.742;-2.990;2022-09-09T10:21:31;3;3;
73414;PMS5003;61633;53.742;-2.990;2022-09-09T10:24:07;3;3;
73414;PMS5003;61633;53.742;-2.990;2022-09-09T10:26:19;4;4;
73414;PMS5003;61633;53.742;-2.990;2022-09-09T10:31:11;4;4;
73414;PMS5003;61633;53.742;-2.990;2022-09-09T10:33:32;4;4;
73414;PMS5003;61633;53.742;-2.990;2022-09-09T10:36:00;2;2;
73414;PMS5003;61633;53.742;-2.990;2022-09-09T10:38:24;3;3;
73414;PMS5003;61633;53.742;-2.990;2022-09-09T10:43:17;4;3;
73414;PMS5003;61633;53.742;-2.990;2022-09-09T10:45:42;3;3;
73414;PMS5003;61633;53.742;-2.990;2022-09-09T10:48:08;2;2;
73414;PMS5003;61633;53.742;-2.990;2022-09-09T10:50:36;3;3;
73414;PMS5003;61633;53.742;-2.990;2022-09-09T10:52:57;3;3;
73414;PMS5003;61633;53.742;-2.990;2022-09-09T10:55:23;2;2;
73414;PMS5003;61633;53.742;-2.990;2022-09-09T10:57:47;1;1;
73414;PMS5003;61633;53.742;-2.990;2022-09-09T11:00:15;2;1;
73414;PMS5003;61633;53.742;-2.990;2022-09-09T11:02:37;2;2;
73414;PMS5003;61633;53.742;-2.990;2022-09-09T11:05:05;3;3;
73414;PMS5003;61633;53.742;-2.990;2022-09-09T11:07:29;3;3;
73414;PMS5003;61633;53.742;-2.990;2022-09-09T11:09:55;3;3;
73414;PMS5003;61633;53.742;-2.990;2022-09-09T11:12:19;4;4;
73414;PMS5003;61633;53.742;-2.990;2022-09-09T11:14:45;4;3;
73414;PMS5003;61633;53.742;-2.990;2022-09-09T11:17:10;2;2;
73414;PMS5003;61633;53.742;-2.990;2022-09-09T11:19:36;3;3;
73414;PMS5003;61633;53.742;-2.990;2022-09-09T11:22:01;2;2;
73414;PMS5003;61633;53.742;-2.990;2022-09-09T11:24:27;2;2;
73414;PMS5003;61633;53.742;-2.990;2022-09-09T11:26:53;5;4;
73414;PMS5003;61633;53.742;-2.990;2022-09-09T11:29:22;1;1;
73414;PMS5003;61633;53.742;-2.990;2022-09-09T11:31:44;4;4;
73414;PMS5003;61633;53.742;-2.990;2022-09-09T11:34:12;4;4;
73414;PMS5003;61633;53.742;-2.990;2022-09-09T11:36:37;7;4;
73414;PMS5003;61633;53.742;-2.990;2022-09-09T11:39:00;4;4;
73414;PMS5003;61633;53.742;-2.990;2022-09-09T11:41:32;1;1;
73414;PMS5003;61633;53.742;-2.990;2022-09-09T11:43:50;1;1;
73414;PMS5003;61633;53.742;-2.990;2022-09-09T11:46:15;3;3;
73414;PMS5003;61633;53.742;-2.990;2022-09-09T11:48:41;3;3;
73414;PMS5003;61633;53.742;-2.990;2022-09-09T11:51:06;5;4;
73414;PMS5003;61633;53.742;-2.990;2022-09-09T11:53:31;1;1;
73414;PMS5003;61633;53.742;-2.990;2022-09-09T11:56:03;1;1;
73414;PMS5003;61633;53.742;-2.990;2022-09-09T11:58:22;3;3;
73414;PMS5003;61633;53.742;-2.990;2022-09-09T12:00:48;3;3;
73414;PMS5003;61633;53.742;-2.990;2022-09-09T12:05:39;2;2;
73414;PMS5003;61633;53.742;-2.990;2022-09-09T12:08:03;2;2;
73414;PMS5003;61633;53.742;-2.990;2022-09-09T12:10:30;2;2;
73414;PMS5003;61633;53.742;-2.990;2022-09-09T12:12:54;2;2;
73414;PMS5003;61633;53.742;-2.990;2022-09-09T12:15:22;3;3;
73414;PMS5003;61633;53.742;-2.990;2022-09-09T12:17:47;3;3;
73414;PMS5003;61633;53.742;-2.990;2022-09-09T12:20:13;1;1;
73414;PMS5003;61633;53.742;-2.990;2022-09-09T12:22:39;2;2;
73414;PMS5003;61633;53.742;-2.990;2022-09-09T12:25:06;2;2;
73414;PMS5003;61633;53.742;-2.990;2022-09-09T12:27:28;2;2;
73414;PMS5003;61633;53.742;-2.990;2022-09-09T12:29:54;2;2;
73414;PMS5003;61633;53.742;-2.990;2022-09-09T12:32:19;3;3;
73414;PMS5003;61633;53.742;-2.990;2022-09-09T12:34:46;2;2;
73414;PMS5003;61633;53.742;-2.990;2022-09-09T12:37:13;2;2;
73414;PMS5003;61633;53.742;-2.990;2022-09-09T12:39:35;1;1;
73414;PMS5003;61633;53.742;-2.990;2022-09-09T12:41:59;2;2;
73414;PMS5003;61633;53.742;-2.990;2022-09-09T12:44:25;3;3;
73414;PMS5003;61633;53.742;-2.990;2022-09-09T12:46:50;4;2;
73414;PMS5003;61633;53.742;-2.990;2022-09-09T12:49:24;3;2;
73414;PMS5003;61633;53.742;-2.990;2022-09-09T12:51:41;2;2;
73414;PMS5003;61633;53.742;-2.990;2022-09-09T12:56:32;2;1;
73414;PMS5003;61633;53.742;-2.990;2022-09-09T12:58:57;4;2;
73414;PMS5003;61633;53.742;-2.990;2022-09-09T13:01:24;2;2;
73414;PMS5003;61633;53.742;-2.990;2022-09-09T13:03:49;1;1;
73414;PMS5003;61633;53.742;-2.990;2022-09-09T13:06:18;4;3;
73414;PMS5003;61633;53.742;-2.990;2022-09-09T13:08:39;1;1;
73414;PMS5003;61633;53.742;-2.990;2022-09-09T13:11:06;2;2;
73414;PMS5003;61633;53.742;-2.990;2022-09-09T13:13:30;4;3;
73414;PMS5003;61633;53.742;-2.990;2022-09-09T13:15:56;2;2;
73414;PMS5003;61633;53.742;-2.990;2022-09-09T13:18:21;3;3;
73414;PMS5003;61633;53.742;-2.990;2022-09-09T13:20:46;0;0;
73414;PMS5003;61633;53.742;-2.990;2022-09-09T13:23:11;2;2;
73414;PMS5003;61633;53.742;-2.990;2022-09-09T13:25:41;2;2;
73414;PMS5003;61633;53.742;-2.990;2022-09-09T13:28:03;2;2;
73414;PMS5003;61633;53.742;-2.990;2022-09-09T13:30:28;1;1;
73414;PMS5003;61633;53.742;-2.990;2022-09-09T13:33:03;2;2;
73414;PMS5003;61633;53.742;-2.990;2022-09-09T13:35:22;2;2;
73414;PMS5003;61633;53.742;-2.990;2022-09-09T13:37:44;2;2;
73414;PMS5003;61633;53.742;-2.990;2022-09-09T13:40:16;2;2;
73414;PMS5003;61633;53.742;-2.990;2022-09-09T13:42:35;2;2;
73414;PMS5003;61633;53.742;-2.990;2022-09-09T13:44:59;3;2;
73414;PMS5003;61633;53.742;-2.990;2022-09-09T13:47:27;2;2;
73414;PMS5003;61633;53.742;-2.990;2022-09-09T13:49:50;2;2;
73414;PMS5003;61633;53.742;-2.990;2022-09-09T13:52:17;2;2;
73414;PMS5003;61633;53.742;-2.990;2022-09-09T13:54:41;4;3;
73414;PMS5003;61633;53.742;-2.990;2022-09-09T13:57:13;2;2;
73414;PMS5003;61633;53.742;-2.990;2022-09-09T13:59:32;2;2;
73414;PMS5003;61633;53.742;-2.990;2022-09-09T14:01:57;3;3;
73414;PMS5003;61633;53.742;-2.990;2022-09-09T14:04:22;2;2;
73414;PMS5003;61633;53.742;-2.990;2022-09-09T14:06:48;1;1;
73414;PMS5003;61633;53.742;-2.990;2022-09-09T14:09:14;0;0;
73414;PMS5003;61633;53.742;-2.990;2022-09-09T14:11:39;4;3;
73414;PMS5003;61633;53.742;-2.990;2022-09-09T14:14:04;1;1;
73414;PMS5003;61633;53.742;-2.990;2022-09-09T14:16:29;2;2;
73414;PMS5003;61633;53.742;-2.990;2022-09-09T14:18:55;1;1;
73414;PMS5003;61633;53.742;-2.990;2022-09-09T14:21:21;1;1;
73414;PMS5003;61633;53.742;-2.990;2022-09-09T14:23:46;2;1;
73414;PMS5003;61633;53.742;-2.990;2022-09-09T14:26:11;0;0;
73414;PMS5003;61633;53.742;-2.990;2022-09-09T14:28:36;1;1;
73414;PMS5003;61633;53.742;-2.990;2022-09-09T14:31:03;1;1;
73414;PMS5003;61633;53.742;-2.990;2022-09-09T14:33:27;1;1;
73414;PMS5003;61633;53.742;-2.990;2022-09-09T14:35:55;2;2;
73414;PMS5003;61633;53.742;-2.990;2022-09-09T14:38:18;2;2;
73414;PMS5003;61633;53.742;-2.990;2022-09-09T14:40:44;1;1;
73414;PMS5003;61633;53.742;-2.990;2022-09-09T14:43:13;2;2;
73414;PMS5003;61633;53.742;-2.990;2022-09-09T14:45:35;1;1;
73414;PMS5003;61633;53.742;-2.990;2022-09-09T14:48:00;1;1;
73414;PMS5003;61633;53.742;-2.990;2022-09-09T14:50:24;1;1;
73414;PMS5003;61633;53.742;-2.990;2022-09-09T14:52:50;0;0;
73414;PMS5003;61633;53.742;-2.990;2022-09-09T14:55:15;0;0;
73414;PMS5003;61633;53.742;-2.990;2022-09-09T14:57:41;1;0;
73414;PMS5003;61633;53.742;-2.990;2022-09-09T15:00:07;0;0;
73414;PMS5003;61633;53.742;-2.990;2022-09-09T15:02:32;0;0;
73414;PMS5003;61633;53.742;-2.990;2022-09-09T15:04:57;0;0;
73414;PMS5003;61633;53.742;-2.990;2022-09-09T15:07:22;0;0;
73414;PMS5003;61633;53.742;-2.990;2022-09-09T15:09:48;0;0;
73414;PMS5003;61633;53.742;-2.990;2022-09-09T15:12:13;0;0;
73414;PMS5003;61633;53.742;-2.990;2022-09-09T15:14:39;0;0;
73414;PMS5003;61633;53.742;-2.990;2022-09-09T15:17:14;0;0;
73414;PMS5003;61633;53.742;-2.990;2022-09-09T15:19:31;0;0;
73414;PMS5003;61633;53.742;-2.990;2022-09-09T15:21:56;0;0;
73414;PMS5003;61633;53.742;-2.990;2022-09-09T15:24:21;0;0;
73414;PMS5003;61633;53.742;-2.990;2022-09-09T15:26:47;0;0;
73414;PMS5003;61633;53.742;-2.990;2022-09-09T15:29:12;1;0;
73414;PMS5003;61633;53.742;-2.990;2022-09-09T15:31:38;1;1;
73414;PMS5003;61633;53.742;-2.990;2022-09-09T15:34:08;0;0;
73414;PMS5003;61633;53.742;-2.990;2022-09-09T15:36:29;1;1;
73414;PMS5003;61633;53.742;-2.990;2022-09-09T15:38:54;0;0;
73414;PMS5003;61633;53.742;-2.990;2022-09-09T15:41:20;1;1;
73414;PMS5003;61633;53.742;-2.990;2022-09-09T15:43:46;0;0;
73414;PMS5003;61633;53.742;-2.990;2022-09-09T15:48:35;0;0;
73414;PMS5003;61633;53.742;-2.990;2022-09-09T15:51:03;0;0;
73414;PMS5003;61633;53.742;-2.990;2022-09-09T15:53:27;0;0;
73414;PMS5003;61633;53.742;-2.990;2022-09-09T15:55:54;1;0;
73414;PMS5003;61633;53.742;-2.990;2022-09-09T15:58:17;0;0;
73414;PMS5003;61633;53.742;-2.990;2022-09-09T16:00:42;1;1;
73414;PMS5003;61633;53.742;-2.990;2022-09-09T16:03:08;0;0;
73414;PMS5003;61633;53.742;-2.990;2022-09-09T16:05:33;0;0;
73414;PMS5003;61633;53.742;-2.990;2022-09-09T16:07:58;0;0;
73414;PMS5003;61633;53.742;-2.990;2022-09-09T16:10:24;1;1;
73414;PMS5003;61633;53.742;-2.990;2022-09-09T16:12:50;0;0;
73414;PMS5003;61633;53.742;-2.990;2022-09-09T16:15:15;0;0;
73414;PMS5003;61633;53.742;-2.990;2022-09-09T16:17:41;0;0;
73414;PMS5003;61633;53.742;-2.990;2022-09-09T16:20:06;0;0;
73414;PMS5003;61633;53.742;-2.990;2022-09-09T16:22:31;0;0;
73414;PMS5003;61633;53.742;-2.990;2022-09-09T16:25:16;0;0;